Time;durP1;ratioP1;P1;durP2;ratioP2;P2;SDS_P1;SDS_P2;PMS_P1;PMS_P2;Temp;Humidity;BMP_temperature;BMP_pressure;BME280_temperature;BME280_humidity;BME280_pressure;Samples;Min_cycle;Max_cycle;Signal;HPM_P1;HPM_P2
2021/08/31 00:01:44;;;;;;;11.18;6.70;;;;;;;23.49;51.93;101996.09;5053733;28;20443;-64
2021/08/31 00:04:09;;;;;;;12.48;7.85;;;;;;;23.48;51.19;101999.84;5051954;28;20166;-63
2021/08/31 00:06:35;;;;;;;13.50;7.55;;;;;;;23.47;51.26;101997.31;5035621;28;20025;-63
2021/08/31 00:09:00;;;;;;;12.05;7.47;;;;;;;23.43;50.89;101996.81;5053561;28;20029;-63
2021/08/31 00:11:25;;;;;;;11.57;7.32;;;;;;;23.42;51.61;101995.13;5052842;28;20144;-63
2021/08/31 00:13:51;;;;;;;12.18;7.40;;;;;;;23.40;51.54;102007.28;5035755;28;20481;-63
2021/08/31 00:16:17;;;;;;;11.50;7.85;;;;;;;23.38;51.98;102009.34;5053695;28;20037;-63
2021/08/31 00:18:43;;;;;;;12.77;8.05;;;;;;;23.36;51.68;102004.06;5053400;28;20116;-63
2021/08/31 00:21:09;;;;;;;18.20;8.10;;;;;;;23.35;52.06;102012.41;5053469;28;20028;-63
2021/08/31 00:23:34;;;;;;;12.48;8.32;;;;;;;23.32;52.10;102016.38;5052166;28;20039;-63
2021/08/31 00:26:00;;;;;;;13.70;7.63;;;;;;;23.29;51.54;102011.28;5051855;28;20429;-64
2021/08/31 00:28:25;;;;;;;10.50;6.97;;;;;;;23.30;52.18;102018.44;5053326;28;20091;-63
2021/08/31 00:30:51;;;;;;;11.90;7.32;;;;;;;23.29;51.12;102022.22;5051859;28;20060;-63
2021/08/31 00:33:16;;;;;;;12.80;8.27;;;;;;;23.27;51.47;102023.44;5052940;28;20470;-63
2021/08/31 00:35:41;;;;;;;13.07;7.07;;;;;;;23.26;51.25;102024.44;5054443;28;20065;-63
2021/08/31 00:38:07;;;;;;;13.02;7.38;;;;;;;23.23;51.43;102022.13;5055502;28;20488;-64
2021/08/31 00:40:32;;;;;;;14.07;8.13;;;;;;;23.23;50.87;102027.59;5055755;28;20065;-64
2021/08/31 00:42:57;;;;;;;16.25;8.60;;;;;;;23.20;52.14;102015.94;5055385;28;20074;-64
2021/08/31 00:45:24;;;;;;;15.15;8.27;;;;;;;23.16;51.85;102019.25;5055489;28;20021;-63
2021/08/31 00:47:49;;;;;;;12.85;8.25;;;;;;;23.16;51.19;102028.31;5055360;28;20107;-63
2021/08/31 00:50:18;;;;;;;14.02;8.75;;;;;;;23.13;51.81;102017.72;5057025;28;20079;-63
2021/08/31 00:52:43;;;;;;;14.40;7.40;;;;;;;23.14;51.71;102032.25;5055429;28;20029;-64
2021/08/31 00:55:10;;;;;;;13.43;7.63;;;;;;;23.12;51.98;102031.56;5056591;28;20102;-63
2021/08/31 00:57:37;;;;;;;14.27;7.85;;;;;;;23.11;51.45;102035.34;5056544;28;20029;-64
2021/08/31 01:00:05;;;;;;;11.23;6.80;;;;;;;23.09;51.80;102031.94;5056583;28;20032;-63
2021/08/31 01:02:31;;;;;;;18.67;7.57;;;;;;;23.08;52.05;102030.25;5055948;28;20053;-63
2021/08/31 01:04:56;;;;;;;11.85;7.22;;;;;;;23.06;52.03;102021.38;5056297;28;20037;-64
2021/08/31 01:07:22;;;;;;;12.95;7.88;;;;;;;23.06;51.14;102026.84;5056221;28;20028;-63
2021/08/31 01:09:49;;;;;;;18.58;8.88;;;;;;;23.03;51.16;102030.75;5056608;28;20025;-64
2021/08/31 01:12:17;;;;;;;14.63;8.32;;;;;;;23.02;51.06;102031.81;5038731;28;20024;-64
2021/08/31 01:14:42;;;;;;;17.15;8.05;;;;;;;22.99;51.91;102028.59;5056876;28;20036;-64
2021/08/31 01:17:08;;;;;;;15.18;9.10;;;;;;;22.98;51.37;102024.13;5055163;28;20032;-63
2021/08/31 01:19:34;;;;;;;12.50;7.43;;;;;;;22.95;51.71;102035.44;5056376;28;20061;-63
2021/08/31 01:22:02;;;;;;;13.27;7.60;;;;;;;22.96;51.36;102031.69;5056194;28;20082;-63
2021/08/31 01:24:28;;;;;;;16.15;9.82;;;;;;;22.95;52.31;102036.28;5056149;28;20043;-63
2021/08/31 01:26:53;;;;;;;18.52;8.68;;;;;;;22.94;51.35;102040.06;5054636;28;20108;-63
2021/08/31 01:29:19;;;;;;;17.10;8.95;;;;;;;22.95;52.03;102040.91;5056329;28;20068;-64
2021/08/31 01:31:44;;;;;;;14.98;8.93;;;;;;;22.95;51.47;102040.91;5056212;28;20500;-64
2021/08/31 01:34:09;;;;;;;18.25;8.40;;;;;;;22.96;52.50;102037.16;5055963;28;20035;-63
2021/08/31 01:36:36;;;;;;;13.52;8.63;;;;;;;22.97;51.37;102038.84;5056205;28;20115;-63
2021/08/31 01:39:04;;;;;;;13.77;8.60;;;;;;;22.92;52.35;102036.66;5055954;28;20451;-64
2021/08/31 01:41:30;;;;;;;17.15;9.50;;;;;;;22.94;51.56;102034.59;5054779;28;20052;-64
2021/08/31 01:43:55;;;;;;;15.00;8.73;;;;;;;22.97;52.01;102036.13;5055724;28;20516;-63
2021/08/31 01:46:20;;;;;;;16.73;8.88;;;;;;;22.96;51.31;102043.47;5055353;28;20480;-63
2021/08/31 01:48:46;;;;;;;14.63;8.65;;;;;;;22.96;52.54;102043.47;5054335;28;20060;-63
2021/08/31 01:51:11;;;;;;;19.50;8.30;;;;;;;22.97;51.42;102041.59;5055488;28;20081;-63
2021/08/31 01:53:37;;;;;;;15.00;8.43;;;;;;;22.98;52.35;102046.00;5054314;28;20029;-63
2021/08/31 01:56:02;;;;;;;15.50;9.15;;;;;;;22.97;51.61;102050.66;5055087;28;20025;-63
2021/08/31 01:58:28;;;;;;;18.58;8.35;;;;;;;22.99;51.48;102058.66;5055315;28;20453;-64
2021/08/31 02:00:54;;;;;;;17.17;8.93;;;;;;;22.98;51.86;102051.47;5053849;28;20032;-63
2021/08/31 02:03:19;;;;;;;16.00;9.45;;;;;;;22.97;52.18;102052.53;5055053;28;20048;-63
2021/08/31 02:05:45;;;;;;;19.20;9.40;;;;;;;22.97;51.59;102061.59;5054969;28;20032;-63
2021/08/31 02:08:10;;;;;;;23.63;9.32;;;;;;;22.94;51.86;102050.16;5053675;28;20033;-64
2021/08/31 02:10:35;;;;;;;18.17;8.82;;;;;;;22.86;51.33;102040.13;5053773;28;20021;-64
2021/08/31 02:13:01;;;;;;;11.73;8.05;;;;;;;22.98;51.50;102062.41;5055045;28;20033;-63
2021/08/31 02:15:26;;;;;;;15.45;8.85;;;;;;;22.98;51.58;102062.41;5053632;28;20024;-64
2021/08/31 02:17:52;;;;;;;17.25;8.73;;;;;;;22.98;52.23;102051.47;5053337;28;20033;-64
2021/08/31 02:20:17;;;;;;;15.90;9.30;;;;;;;22.98;52.46;102051.47;5054568;28;20099;-63
2021/08/31 02:22:43;;;;;;;14.27;8.43;;;;;;;22.98;52.43;102055.06;5055162;28;20032;-63
2021/08/31 02:25:09;;;;;;;22.23;8.90;;;;;;;22.98;52.27;102062.41;5036718;28;20087;-63
2021/08/31 02:27:35;;;;;;;15.38;8.23;;;;;;;22.98;51.68;102065.13;5053403;28;20028;-64
2021/08/31 02:30:01;;;;;;;19.20;8.85;;;;;;;22.95;51.98;102057.28;5054473;28;20021;-63
2021/08/31 02:32:26;;;;;;;20.80;9.52;;;;;;;22.93;52.32;102060.22;5053175;28;20470;-63
2021/08/31 02:34:52;;;;;;;15.43;9.05;;;;;;;22.96;51.75;102059.00;5055122;28;20024;-63
2021/08/31 02:37:17;;;;;;;17.33;9.15;;;;;;;22.94;51.85;102063.81;5054462;28;20516;-63
2021/08/31 02:39:42;;;;;;;15.50;9.15;;;;;;;22.96;52.57;102069.94;5036420;28;20115;-64
2021/08/31 02:42:08;;;;;;;16.50;9.77;;;;;;;22.96;51.63;102067.22;5054599;28;20033;-63
2021/08/31 02:44:34;;;;;;;19.02;10.23;;;;;;;22.93;52.15;102059.38;5054299;28;20386;-63
2021/08/31 02:46:59;;;;;;;18.33;9.57;;;;;;;22.96;52.68;102064.47;5054183;28;20159;-63
2021/08/31 02:49:25;;;;;;;20.15;10.48;;;;;;;22.87;52.12;102054.63;5052821;28;20033;-64
2021/08/31 02:51:50;;;;;;;27.98;11.68;;;;;;;22.87;51.82;102060.09;5052756;28;20033;-63
2021/08/31 02:54:15;;;;;;;20.58;10.88;;;;;;;22.87;52.30;102071.00;5053908;28;20113;-64
2021/08/31 02:56:41;;;;;;;18.70;10.55;;;;;;;22.86;52.74;102072.06;5054047;28;20469;-63
2021/08/31 02:59:06;;;;;;;24.63;12.60;;;;;;;22.84;52.87;102077.69;5053976;28;20036;-63
2021/08/31 03:01:38;;;;;;;19.77;11.52;;;;;;;22.81;52.69;102079.94;5054135;28;20036;-63
2021/08/31 03:04:04;;;;;;;20.02;10.95;;;;;;;22.80;53.12;102080.97;5053736;28;20103;-63
2021/08/31 03:06:30;;;;;;;22.17;10.93;;;;;;;22.79;52.89;102082.00;5052721;28;20111;-63
2021/08/31 03:08:56;;;;;;;22.60;11.68;;;;;;;22.78;52.64;102083.03;5052643;28;20112;-63
2021/08/31 03:11:22;;;;;;;21.90;11.90;;;;;;;22.78;52.12;102083.03;5054152;28;20052;-63
2021/08/31 03:13:48;;;;;;;19.75;11.02;;;;;;;22.76;53.13;102087.81;5054367;28;20346;-63
2021/08/31 03:16:14;;;;;;;29.13;13.18;;;;;;;22.76;52.84;102079.59;5054266;28;20032;-63
2021/08/31 03:18:39;;;;;;;22.50;11.60;;;;;;;22.71;52.42;102076.56;5052674;28;20040;-63
2021/08/31 03:21:04;;;;;;;20.25;11.23;;;;;;;22.70;52.80;102080.34;5053691;28;20079;-63
2021/08/31 03:23:30;;;;;;;22.15;12.05;;;;;;;22.68;53.37;102077.78;5054135;28;20036;-63
2021/08/31 03:25:55;;;;;;;20.05;11.82;;;;;;;22.69;53.26;102074.03;5053789;28;20070;-63
2021/08/31 03:28:21;;;;;;;19.25;11.60;;;;;;;22.66;52.90;102073.53;5052910;28;20025;-64
2021/08/31 03:30:46;;;;;;;28.05;12.45;;;;;;;22.67;53.56;102075.25;5053814;28;20036;-64
2021/08/31 03:33:12;;;;;;;24.42;11.93;;;;;;;22.69;52.59;102081.38;5053981;28;20029;-63
2021/08/31 03:35:37;;;;;;;25.98;12.35;;;;;;;22.69;53.04;102082.22;5053362;28;20032;-63
2021/08/31 03:38:03;;;;;;;22.45;11.68;;;;;;;22.68;52.61;102087.84;5052360;28;20029;-63
2021/08/31 03:40:28;;;;;;;25.52;11.60;;;;;;;22.67;53.35;102088.91;5052021;28;20033;-64
2021/08/31 03:42:53;;;;;;;25.48;11.90;;;;;;;22.66;53.48;102084.44;5053635;28;20112;-63
2021/08/31 03:45:19;;;;;;;21.50;11.43;;;;;;;22.65;52.59;102091.78;5052677;28;20037;-63
2021/08/31 03:47:44;;;;;;;20.92;10.68;;;;;;;22.68;53.60;102096.03;5053647;28;20039;-63
2021/08/31 03:50:10;;;;;;;19.70;11.48;;;;;;;22.67;52.40;102097.09;5053258;28;20429;-63
2021/08/31 03:52:36;;;;;;;23.77;11.75;;;;;;;22.67;53.37;102097.09;5053278;28;20033;-63
2021/08/31 03:55:01;;;;;;;22.27;11.82;;;;;;;22.59;53.38;102087.84;5053778;28;20082;-63
2021/08/31 03:57:26;;;;;;;23.60;10.82;;;;;;;22.64;53.25;102097.44;5053424;28;20080;-63
2021/08/31 03:59:52;;;;;;;20.63;11.02;;;;;;;22.65;53.07;102101.84;5053254;28;20029;-63
2021/08/31 04:02:18;;;;;;;22.58;11.98;;;;;;;22.65;53.40;102104.59;5052295;28;20113;-63
2021/08/31 04:04:43;;;;;;;19.85;11.10;;;;;;;22.61;52.69;102093.97;5051746;28;20383;-63
2021/08/31 04:07:09;;;;;;;23.38;13.10;;;;;;;22.64;52.75;102098.28;5053225;28;20086;-63
2021/08/31 04:09:34;;;;;;;24.50;11.52;;;;;;;22.67;53.50;102103.38;5054760;28;20025;-63
2021/08/31 04:11:59;;;;;;;19.25;11.57;;;;;;;22.66;53.14;102112.63;5057215;28;20025;-64
2021/08/31 04:14:25;;;;;;;22.70;11.48;;;;;;;22.67;52.51;102116.22;5057734;28;20032;-63
2021/08/31 04:16:50;;;;;;;25.38;12.70;;;;;;;22.67;52.93;102113.47;5057522;28;20036;-64
2021/08/31 04:19:15;;;;;;;21.65;11.32;;;;;;;22.68;52.58;102117.91;5057511;28;20048;-63
2021/08/31 04:21:41;;;;;;;20.17;10.65;;;;;;;22.71;52.83;102120.28;5056853;28;20032;-64
2021/08/31 04:24:06;;;;;;;22.45;11.77;;;;;;;22.71;53.55;102112.09;5056974;28;20037;-63
2021/08/31 04:26:32;;;;;;;18.33;11.13;;;;;;;22.72;53.56;102122.00;5056805;28;20100;-63
2021/08/31 04:28:57;;;;;;;23.98;12.82;;;;;;;22.73;53.33;102126.41;5057106;28;20053;-63
2021/08/31 04:31:23;;;;;;;21.60;12.70;;;;;;;22.72;52.74;102127.47;5055970;28;20393;-63
2021/08/31 04:33:49;;;;;;;19.98;11.50;;;;;;;22.72;52.48;102132.91;5055488;28;20111;-63
2021/08/31 04:36:14;;;;;;;28.80;11.82;;;;;;;22.71;53.31;102126.59;5055431;28;20064;-63
2021/08/31 04:38:40;;;;;;;19.27;11.32;;;;;;;22.73;53.24;102134.59;5056501;28;20104;-64
2021/08/31 04:41:05;;;;;;;18.40;10.98;;;;;;;22.73;52.29;102134.59;5056875;28;20033;-63
2021/08/31 04:43:30;;;;;;;22.85;12.15;;;;;;;22.73;52.67;102140.06;5055307;28;20424;-63
2021/08/31 04:45:56;;;;;;;18.98;11.23;;;;;;;22.69;52.93;102134.13;5056523;28;20078;-63
2021/08/31 04:48:21;;;;;;;19.35;10.77;;;;;;;22.71;52.61;102147.59;5056555;28;20104;-63
2021/08/31 04:50:47;;;;;;;19.42;10.85;;;;;;;22.72;53.49;102146.59;5055579;28;20025;-63
2021/08/31 04:53:12;;;;;;;20.83;11.27;;;;;;;22.73;53.42;102156.47;5056411;28;20105;-64
2021/08/31 04:55:37;;;;;;;20.55;10.77;;;;;;;22.73;52.46;102151.84;5056308;28;20029;-63
2021/08/31 04:58:03;;;;;;;20.08;10.73;;;;;;;22.74;53.35;102158.19;5055006;28;20550;-64
2021/08/31 05:00:28;;;;;;;18.08;10.85;;;;;;;22.73;53.25;102157.31;5055034;28;20026;-63
2021/08/31 05:02:55;;;;;;;19.05;10.88;;;;;;;22.74;53.35;102158.19;5054683;28;20060;-63
2021/08/31 05:05:22;;;;;;;24.20;11.55;;;;;;;22.75;53.18;102166.22;5054920;28;20065;-64
2021/08/31 05:07:48;;;;;;;19.40;10.55;;;;;;;22.74;53.30;102164.50;5056393;28;20070;-63
2021/08/31 05:10:13;;;;;;;21.23;10.77;;;;;;;22.75;52.30;102168.94;5056796;28;20060;-63
2021/08/31 05:12:39;;;;;;;22.30;11.32;;;;;;;22.77;52.34;102175.09;5056192;28;20044;-63
2021/08/31 05:15:05;;;;;;;20.45;11.15;;;;;;;22.74;53.00;102166.38;5056496;28;20029;-63
2021/08/31 05:17:30;;;;;;;21.92;11.57;;;;;;;22.77;53.28;102168.75;5055217;28;20025;-64
2021/08/31 05:19:56;;;;;;;21.45;10.88;;;;;;;22.78;52.95;102181.41;5056193;28;20029;-63
2021/08/31 05:22:22;;;;;;;20.20;11.48;;;;;;;22.78;52.31;102175.94;5054694;28;20037;-64
2021/08/31 05:24:48;;;;;;;18.65;11.80;;;;;;;22.79;52.93;102177.63;5055226;28;20053;-64
2021/08/31 05:27:14;;;;;;;20.08;10.52;;;;;;;22.77;52.24;102196.09;5055857;28;20029;-63
2021/08/31 05:29:39;;;;;;;22.65;11.57;;;;;;;22.78;52.16;102193.16;5055615;28;20075;-63
2021/08/31 05:32:05;;;;;;;23.38;10.25;;;;;;;22.78;52.17;102187.69;5055725;28;20029;-63
2021/08/31 05:34:31;;;;;;;21.48;11.40;;;;;;;22.80;52.52;102195.75;5055998;28;20499;-64
2021/08/31 05:36:56;;;;;;;21.98;11.05;;;;;;;22.81;52.74;102203.75;5054513;28;20061;-63
2021/08/31 05:39:21;;;;;;;24.77;12.05;;;;;;;22.81;52.14;102198.28;5055725;28;20426;-63
2021/08/31 05:41:47;;;;;;;21.65;11.55;;;;;;;22.79;53.04;102200.34;5055754;28;20027;-64
2021/08/31 05:44:12;;;;;;;22.08;10.73;;;;;;;22.78;52.87;102197.81;5055100;28;20025;-63
2021/08/31 05:46:38;;;;;;;23.13;12.35;;;;;;;22.77;53.20;102194.22;5055317;28;20464;-63
2021/08/31 05:49:03;;;;;;;18.50;10.00;;;;;;;22.78;52.99;102200.53;5055456;28;20523;-63
2021/08/31 05:51:29;;;;;;;21.05;11.00;;;;;;;22.75;52.54;102193.53;5037341;28;20052;-63
2021/08/31 05:53:55;;;;;;;19.55;11.25;;;;;;;22.80;52.86;102201.19;5054038;28;20029;-63
2021/08/31 05:56:20;;;;;;;19.52;10.98;;;;;;;22.80;52.16;102207.53;5055003;28;20055;-63
2021/08/31 05:58:45;;;;;;;22.60;12.02;;;;;;;22.83;53.14;102206.31;5055594;28;20025;-63
2021/08/31 06:01:11;;;;;;;22.40;10.55;;;;;;;22.86;53.10;102212.28;5055308;28;20511;-63
2021/08/31 06:03:36;;;;;;;18.63;10.10;;;;;;;22.86;53.06;102205.97;5054370;28;20432;-63
2021/08/31 06:06:02;;;;;;;20.17;11.55;;;;;;;22.88;52.80;102198.44;5054802;28;20108;-63
2021/08/31 06:08:30;;;;;;;20.05;11.00;;;;;;;22.91;52.15;102206.28;5055281;28;20083;-64
2021/08/31 06:10:56;;;;;;;20.65;10.63;;;;;;;22.90;53.16;102202.69;5054911;28;20548;-63
2021/08/31 06:13:21;;;;;;;17.73;10.88;;;;;;;22.94;53.15;102203.22;5055410;28;20025;-64
2021/08/31 06:15:46;;;;;;;22.85;11.80;;;;;;;22.95;53.16;102202.16;5053166;28;20398;-63
2021/08/31 06:18:12;;;;;;;21.73;11.98;;;;;;;22.98;53.11;102205.41;5055132;28;20029;-63
2021/08/31 06:20:37;;;;;;;23.95;11.95;;;;;;;22.99;52.80;102206.25;5054760;28;20026;-63
2021/08/31 06:23:03;;;;;;;20.30;10.63;;;;;;;23.05;53.12;102216.50;5053864;28;20025;-63
2021/08/31 06:25:28;;;;;;;22.60;12.75;;;;;;;23.09;53.22;102228.75;5055146;28;20029;-63
2021/08/31 06:27:53;;;;;;;23.20;11.52;;;;;;;23.14;52.50;102220.91;5054868;28;20115;-63
2021/08/31 06:30:20;;;;;;;24.77;12.45;;;;;;;23.15;52.90;102211.66;5054954;28;20040;-63
2021/08/31 06:32:45;;;;;;;24.33;12.30;;;;;;;23.18;52.79;102216.78;5054210;28;20397;-63
2021/08/31 06:35:10;;;;;;;23.38;12.88;;;;;;;23.21;52.55;102221.88;5054574;28;20033;-63
2021/08/31 06:37:36;;;;;;;19.70;11.45;;;;;;;23.24;52.59;102221.53;5053819;28;20134;-63
2021/08/31 06:40:01;;;;;;;22.83;13.13;;;;;;;23.29;52.80;102221.84;5054253;28;20025;-63
2021/08/31 06:42:27;;;;;;;22.55;11.55;;;;;;;23.30;53.00;102219.97;5054343;28;20072;-63
2021/08/31 06:44:52;;;;;;;22.90;11.70;;;;;;;23.34;52.17;102221.31;5054768;28;20051;-63
2021/08/31 06:47:17;;;;;;;25.15;12.32;;;;;;;23.38;53.07;102223.56;5053372;28;20110;-63
2021/08/31 06:49:43;;;;;;;23.77;12.55;;;;;;;23.42;52.50;102230.34;5054599;28;20025;-63
2021/08/31 06:52:08;;;;;;;18.70;11.50;;;;;;;23.43;52.20;102226.59;5054592;28;20029;-63
2021/08/31 06:54:34;;;;;;;21.35;10.77;;;;;;;23.40;53.07;102216.00;5054441;28;20078;-63
2021/08/31 06:56:59;;;;;;;21.05;9.70;;;;;;;23.41;51.87;102230.53;5053296;28;20165;-63
2021/08/31 06:59:24;;;;;;;22.65;11.07;;;;;;;23.35;52.74;102221.13;5054085;28;20036;-63
2021/08/31 07:01:50;;;;;;;20.92;12.00;;;;;;;23.39;52.43;102219.78;5053947;28;20028;-63
2021/08/31 07:04:15;;;;;;;15.85;9.52;;;;;;;23.39;52.37;102230.75;5053598;28;20101;-63
2021/08/31 07:06:41;;;;;;;18.77;10.05;;;;;;;23.37;52.37;102235.47;5053926;28;20059;-63
2021/08/31 07:09:06;;;;;;;21.20;10.90;;;;;;;23.38;52.41;102229.03;5052398;28;20048;-63
2021/08/31 07:11:31;;;;;;;18.70;10.05;;;;;;;23.40;52.82;102240.63;5052625;28;20378;-64
2021/08/31 07:13:57;;;;;;;18.05;10.27;;;;;;;23.41;52.16;102242.34;5053060;28;20048;-63
2021/08/31 07:16:23;;;;;;;18.98;10.07;;;;;;;23.43;52.34;102244.88;5052677;28;20020;-64
2021/08/31 07:18:48;;;;;;;18.20;10.80;;;;;;;23.39;52.10;102247.16;5053935;28;20068;-64
2021/08/31 07:21:13;;;;;;;21.33;10.55;;;;;;;23.41;51.91;102250.56;5052982;28;20028;-63
2021/08/31 07:23:39;;;;;;;17.95;10.15;;;;;;;23.41;52.15;102256.03;5053878;28;20041;-63
2021/08/31 07:26:04;;;;;;;18.73;10.25;;;;;;;23.45;51.82;102260.09;5054105;28;20036;-64
2021/08/31 07:28:29;;;;;;;16.20;9.52;;;;;;;23.48;52.76;102242.50;5052869;28;20066;-63
2021/08/31 07:30:55;;;;;;;16.95;10.73;;;;;;;23.54;51.95;102249.97;5052183;28;20154;-64
2021/08/31 07:33:20;;;;;;;17.08;9.18;;;;;;;23.56;52.39;102246.00;5053343;28;20036;-64
2021/08/31 07:35:47;;;;;;;20.88;10.32;;;;;;;23.59;51.58;102248.38;5053784;28;20029;-63
2021/08/31 07:38:12;;;;;;;18.70;9.65;;;;;;;23.59;52.06;102248.38;5052778;28;20029;-63
2021/08/31 07:40:38;;;;;;;23.77;10.23;;;;;;;23.60;52.48;102250.09;5051226;28;20495;-63
2021/08/31 07:43:03;;;;;;;19.27;10.30;;;;;;;23.60;52.00;102249.25;5051887;28;20033;-63
2021/08/31 07:45:28;;;;;;;18.20;10.80;;;;;;;23.59;51.61;102253.03;5034694;28;20162;-63
2021/08/31 07:47:54;;;;;;;21.20;11.90;;;;;;;23.60;51.52;102257.44;5053796;28;20382;-63
2021/08/31 07:50:19;;;;;;;21.40;10.75;;;;;;;23.60;51.81;102262.91;5052077;28;20037;-63
2021/08/31 07:52:46;;;;;;;18.27;10.27;;;;;;;23.59;51.44;102262.06;5053397;28;20155;-63
2021/08/31 07:55:12;;;;;;;23.65;11.43;;;;;;;23.61;51.63;102267.38;5053697;28;20115;-63
2021/08/31 07:57:38;;;;;;;16.25;10.23;;;;;;;23.62;51.94;102263.59;5052324;28;20044;-63
2021/08/31 08:00:05;;;;;;;19.13;9.80;;;;;;;23.60;51.43;102266.53;5053526;28;20033;-64
2021/08/31 08:02:33;;;;;;;16.65;10.73;;;;;;;23.64;51.66;102280.69;5052033;28;20551;-63
2021/08/31 08:04:59;;;;;;;18.92;10.98;;;;;;;23.63;51.73;102277.09;5052312;28;20045;-63
2021/08/31 08:07:26;;;;;;;23.92;10.85;;;;;;;23.60;52.16;102261.03;5053392;28;20029;-63
2021/08/31 08:09:52;;;;;;;16.95;10.18;;;;;;;23.62;51.36;102280.00;5053494;28;20049;-64
2021/08/31 08:12:18;;;;;;;17.75;9.93;;;;;;;23.63;52.14;102288.06;5053114;28;20547;-63
2021/08/31 08:14:43;;;;;;;15.10;9.98;;;;;;;23.57;51.34;102272.34;5053693;28;20029;-63
2021/08/31 08:17:09;;;;;;;18.50;10.18;;;;;;;23.67;51.24;102286.66;5035288;28;20076;-63
2021/08/31 08:19:34;;;;;;;22.02;10.35;;;;;;;23.70;51.19;102289.03;5035191;28;20449;-64
2021/08/31 08:22:00;;;;;;;19.58;10.38;;;;;;;23.72;51.21;102292.47;5053640;28;20347;-63
2021/08/31 08:24:25;;;;;;;15.55;9.38;;;;;;;23.73;52.10;102296.88;5053399;28;20429;-63
2021/08/31 08:26:52;;;;;;;20.50;10.35;;;;;;;23.74;51.21;102300.47;5052165;28;20035;-63
2021/08/31 08:29:18;;;;;;;16.67;8.77;;;;;;;23.73;51.66;102293.28;5052057;28;20115;-63
2021/08/31 08:31:45;;;;;;;16.88;9.07;;;;;;;23.79;51.10;102309.00;5051614;28;20024;-63
2021/08/31 08:34:11;;;;;;;18.63;9.95;;;;;;;23.80;51.59;102296.16;5051721;28;20420;-63
2021/08/31 08:36:36;;;;;;;20.02;10.73;;;;;;;23.87;51.39;102306.22;5053261;28;20052;-64
2021/08/31 08:39:03;;;;;;;16.38;9.57;;;;;;;23.87;51.25;102297.16;5052179;28;20521;-64
2021/08/31 08:41:28;;;;;;;14.93;8.68;;;;;;;23.94;51.32;102298.13;5053075;28;20497;-63
2021/08/31 08:43:59;;;;;;;16.80;8.63;;;;;;;24.01;50.88;102307.34;5035030;28;20037;-63
2021/08/31 08:46:25;;;;;;;16.17;8.98;;;;;;;23.95;51.04;102291.63;5051904;28;20029;-63
2021/08/31 08:48:50;;;;;;;16.55;9.32;;;;;;;24.10;51.62;102300.78;5052143;28;20071;-65
2021/08/31 08:51:16;;;;;;;19.52;10.38;;;;;;;24.12;50.89;102298.75;5034931;28;20432;-64
2021/08/31 08:53:41;;;;;;;14.38;8.50;;;;;;;24.12;51.07;102293.28;5053101;28;20020;-63
2021/08/31 08:56:07;;;;;;;16.10;9.68;;;;;;;24.16;51.49;102294.59;5055079;28;20083;-63
2021/08/31 08:58:32;;;;;;;16.08;9.10;;;;;;;24.14;51.57;102304.88;5056503;28;20024;-63
2021/08/31 09:01:10;;;;;;;21.65;10.65;;;;;;;24.20;51.50;102312.38;5056351;28;20037;-63
2021/08/31 09:03:38;;;;;;;23.67;11.63;;;;;;;24.24;51.05;102313.72;5056192;28;20502;-64
2021/08/31 09:06:03;;;;;;;25.92;10.43;;;;;;;24.29;50.75;102319.47;5056515;28;20424;-63
2021/08/31 09:08:29;;;;;;;16.60;9.38;;;;;;;24.35;50.39;102316.00;5056557;28;20121;-64
2021/08/31 09:10:54;;;;;;;17.52;9.48;;;;;;;24.38;50.87;102315.66;5056043;28;20032;-64
2021/08/31 09:13:21;;;;;;;15.60;10.10;;;;;;;24.35;50.67;102313.28;5056012;28;20492;-64
2021/08/31 09:15:46;;;;;;;17.73;9.10;;;;;;;24.41;50.45;102326.25;5056217;28;20079;-63
2021/08/31 09:18:17;;;;;;;22.75;10.02;;;;;;;24.44;50.56;102320.41;5055240;28;20052;-64
2021/08/31 09:20:58;;;;;;;22.17;9.68;;;;;;;24.45;50.46;102316.63;5056113;28;20021;-63
2021/08/31 09:23:34;;;;;;;20.17;9.80;;;;;;;24.46;49.96;102322.94;5055770;28;20025;-63
2021/08/31 09:26:08;;;;;;;31.25;12.10;;;;;;;24.48;50.25;102332.72;5055834;28;20037;-64
2021/08/31 09:28:36;;;;;;;16.17;10.05;;;;;;;24.52;50.36;102325.81;5055231;28;20036;-63
2021/08/31 09:31:07;;;;;;;20.00;10.00;;;;;;;24.55;50.61;102333.66;5055695;28;20060;-63
2021/08/31 09:33:44;;;;;;;19.55;11.40;;;;;;;24.58;50.00;102333.31;5055948;28;20029;-64
2021/08/31 09:36:18;;;;;;;18.35;10.82;;;;;;;24.59;49.93;102326.81;5056128;28;20495;-64
2021/08/31 09:38:53;;;;;;;28.45;10.88;;;;;;;24.64;50.23;102335.31;5055266;28;20021;-64
2021/08/31 09:41:47;;;;;;;18.38;10.50;;;;;;;24.62;50.27;102326.41;5056106;28;20043;-63
2021/08/31 09:44:19;;;;;;;17.50;9.70;;;;;;;24.66;49.78;102335.97;5037003;28;20379;-64
2021/08/31 09:47:04;;;;;;;21.10;9.60;;;;;;;24.64;50.01;102332.56;5055704;28;20064;-64
2021/08/31 09:49:37;;;;;;;24.77;9.95;;;;;;;24.63;49.82;102330.00;5054947;28;20097;-64
2021/08/31 09:52:14;;;;;;;21.33;10.30;;;;;;;24.73;50.05;102334.22;5037656;28;20029;-63
2021/08/31 09:54:41;;;;;;;14.60;9.35;;;;;;;24.78;50.29;102329.03;5037519;28;20021;-63
2021/08/31 09:57:26;;;;;;;16.00;9.80;;;;;;;24.84;49.99;102328.31;5054019;28;20047;-64
2021/08/31 09:59:51;;;;;;;16.00;9.13;;;;;;;24.88;50.18;102329.63;5055334;28;20029;-64
2021/08/31 10:02:17;;;;;;;16.63;9.25;;;;;;;24.90;49.57;102326.72;5055663;28;20048;-64
2021/08/31 10:04:42;;;;;;;14.57;8.35;;;;;;;25.01;49.90;102322.66;5054774;28;20053;-63
2021/08/31 10:07:07;;;;;;;17.77;9.02;;;;;;;25.11;49.69;102334.19;5054376;28;20520;-64
2021/08/31 10:09:33;;;;;;;12.77;8.02;;;;;;;25.19;49.01;102331.38;5053875;28;20112;-63
2021/08/31 10:11:59;;;;;;;13.15;8.20;;;;;;;25.27;49.32;102339.50;5055159;28;20103;-64
2021/08/31 10:14:25;;;;;;;14.13;8.40;;;;;;;25.33;48.93;102338.75;5055390;28;20471;-63
2021/08/31 10:16:50;;;;;;;19.17;7.88;;;;;;;25.30;48.90;102336.38;5054259;28;20040;-63
2021/08/31 10:19:16;;;;;;;15.27;7.88;;;;;;;25.36;48.94;102341.13;5054571;28;20033;-64
2021/08/31 10:21:43;;;;;;;14.20;8.27;;;;;;;25.46;48.54;102339.78;5053775;28;20477;-63
2021/08/31 10:24:09;;;;;;;16.95;8.18;;;;;;;25.57;48.59;102332.16;5053738;28;20040;-63
2021/08/31 10:26:35;;;;;;;14.55;8.20;;;;;;;25.63;48.81;102339.66;5054680;28;20028;-61
2021/08/31 10:29:25;;;;;;;14.05;8.25;;;;;;;25.75;48.58;102338.09;5053490;28;20543;-61
2021/08/31 10:31:52;;;;;;;13.38;7.10;;;;;;;25.87;48.32;102337.44;5053669;28;20044;-61
2021/08/31 10:34:30;;;;;;;13.88;8.65;;;;;;;25.97;48.16;102343.44;5053350;28;20111;-61
2021/08/31 10:37:04;;;;;;;16.02;7.85;;;;;;;26.04;48.55;102341.66;5053241;28;20025;-61
2021/08/31 10:39:43;;;;;;;11.63;6.75;;;;;;;26.03;48.08;102339.06;5053785;28;20099;-61
2021/08/31 10:42:10;;;;;;;14.65;7.28;;;;;;;26.09;47.97;102345.69;5054501;28;20036;-61
2021/08/31 10:44:40;;;;;;;12.27;7.82;;;;;;;26.18;47.78;102339.06;5054570;28;20477;-61
2021/08/31 10:47:08;;;;;;;13.93;6.22;;;;;;;26.25;47.97;102339.97;5053186;28;20021;-62
2021/08/31 10:49:55;;;;;;;14.65;7.53;;;;;;;26.32;47.56;102343.66;5053248;28;20104;-61
2021/08/31 10:52:31;;;;;;;12.00;7.25;;;;;;;26.40;47.59;102338.03;5052694;28;20032;-61
2021/08/31 10:54:56;;;;;;;10.07;7.18;;;;;;;26.47;47.68;102341.69;5050645;28;20036;-61
2021/08/31 10:57:37;;;;;;;11.43;6.80;;;;;;;26.56;47.09;102330.38;5051808;28;20037;-61
2021/08/31 11:00:14;;;;;;;11.63;6.57;;;;;;;26.61;47.50;102335.25;5050971;28;20020;-61
2021/08/31 11:02:45;;;;;;;17.15;7.80;;;;;;;26.67;47.54;102339.13;5050655;28;20048;-61
2021/08/31 11:05:33;;;;;;;14.75;6.43;;;;;;;26.70;47.56;102339.59;5052617;28;20379;-61
2021/08/31 11:07:59;;;;;;;14.05;6.25;;;;;;;26.72;47.43;102336.66;5048990;28;20036;-61
2021/08/31 11:10:33;;;;;;;21.92;7.75;;;;;;;26.72;46.88;102347.66;5052969;28;20335;-61